createdAt,value
2018-08-30T00:04:47.645Z,0.00
2018-08-30T00:05:43.097Z,0.00
2018-08-30T00:09:22.162Z,0.00
2018-08-30T00:10:21.783Z,0.00
2018-08-30T00:15:31.489Z,0.00
2018-08-30T00:16:18.846Z,0.00
2018-08-30T00:20:07.135Z,0.00
2018-08-30T00:23:54.363Z,0.00
2018-08-30T00:32:02.671Z,0.00
2018-08-30T00:34:36.573Z,0.00
2018-08-30T00:36:31.120Z,0.00
2018-08-30T00:39:42.742Z,0.00
2018-08-30T00:40:45.206Z,0.00
2018-08-30T00:59:21.216Z,0.00
2018-08-30T01:00:21.512Z,0.00
2018-08-30T01:04:39.739Z,0.00
2018-08-30T01:05:39.586Z,0.00
2018-08-30T01:07:43.812Z,0.00
2018-08-30T01:08:51.983Z,0.00
2018-08-30T01:11:50.739Z,0.00
2018-08-30T01:17:33.093Z,0.00
2018-08-30T01:32:51.474Z,0.00
2018-08-30T01:37:04.446Z,0.00
2018-08-30T01:41:22.896Z,0.00
2018-08-30T01:42:24.658Z,0.00
2018-08-30T01:47:53.608Z,0.00
2018-08-30T01:58:51.711Z,0.00
2018-08-30T02:03:13.324Z,0.00
2018-08-30T02:08:56.029Z,0.00
2018-08-30T02:20:35.504Z,0.00
2018-08-30T02:32:21.686Z,0.00
2018-08-30T02:59:36.578Z,0.00
2018-08-30T03:00:37.386Z,0.00
2018-08-30T03:01:36.501Z,0.00
2018-08-30T03:15:21.125Z,0.00
2018-08-30T03:16:20.148Z,0.00
2018-08-30T03:17:20.039Z,0.00
2018-08-30T03:18:20.139Z,0.00
2018-08-30T03:20:30.335Z,0.00
2018-08-30T03:21:29.982Z,0.00
2018-08-30T03:22:29.960Z,0.00
2018-08-30T03:23:29.847Z,0.00
2018-08-30T03:24:29.840Z,0.00
2018-08-30T03:25:29.963Z,0.00
2018-08-30T03:26:30.541Z,0.00
2018-08-30T03:27:29.792Z,0.00
2018-08-30T03:29:48.739Z,0.00
2018-08-30T03:30:48.358Z,0.00
2018-08-30T03:31:48.269Z,0.00
2018-08-30T03:32:48.324Z,0.00
2018-08-30T03:33:48.188Z,0.00
2018-08-30T03:34:49.153Z,0.00
2018-08-30T03:35:48.210Z,0.00
2018-08-30T03:36:48.158Z,0.00
2018-08-30T03:37:48.360Z,0.00
2018-08-30T03:43:12.034Z,0.00
2018-08-30T03:44:11.045Z,0.00
2018-08-30T03:45:20.585Z,0.00
2018-08-30T03:49:58.948Z,0.00
2018-08-30T03:52:24.034Z,0.00
2018-08-30T03:53:24.639Z,0.00
2018-08-30T03:54:23.986Z,0.00
2018-08-30T03:56:52.707Z,0.00
2018-08-30T03:57:52.359Z,0.00
2018-08-30T03:58:53.088Z,0.00
2018-08-30T04:01:04.854Z,0.00
2018-08-30T04:02:04.449Z,0.00
2018-08-30T04:04:26.778Z,0.00
2018-08-30T04:05:26.289Z,0.00
2018-08-30T04:06:26.195Z,0.00
2018-08-30T04:07:26.177Z,0.00
2018-08-30T04:08:26.152Z,0.00
2018-08-30T04:09:26.175Z,0.00
2018-08-30T04:10:26.149Z,0.00
2018-08-30T04:11:26.126Z,0.00
2018-08-30T04:12:26.109Z,0.00
2018-08-30T04:13:26.131Z,0.00
2018-08-30T04:14:26.123Z,0.00
2018-08-30T04:15:26.088Z,0.00
2018-08-30T04:16:26.059Z,0.00
2018-08-30T04:17:26.049Z,0.00
2018-08-30T04:18:26.120Z,0.00
2018-08-30T04:19:26.068Z,0.00
2018-08-30T04:20:26.135Z,0.00
2018-08-30T04:21:26.004Z,0.00
2018-08-30T04:22:26.038Z,0.00
2018-08-30T04:23:26.014Z,0.00
2018-08-30T04:24:26.088Z,0.00
2018-08-30T04:25:25.958Z,0.00
2018-08-30T04:26:25.957Z,0.00
2018-08-30T04:27:26.176Z,0.00
2018-08-30T04:30:12.556Z,0.00
2018-08-30T04:31:12.149Z,0.00
2018-08-30T04:32:12.550Z,0.00
2018-08-30T04:33:12.061Z,0.00
2018-08-30T04:34:11.976Z,0.00
2018-08-30T04:35:11.943Z,0.00
2018-08-30T04:36:12.578Z,0.00
2018-08-30T04:37:12.005Z,0.00
2018-08-30T04:38:11.903Z,0.00
2018-08-30T04:39:12.521Z,0.00
2018-08-30T04:47:35.845Z,16.88
2018-08-30T04:51:38.035Z,16.88
2018-08-30T04:52:38.019Z,16.88
2018-08-30T04:58:35.676Z,33.75
2018-08-30T04:59:35.421Z,39.38
2018-08-30T05:00:35.372Z,45.00
2018-08-30T05:01:35.348Z,45.00
2018-08-30T05:02:35.707Z,45.00
2018-08-30T05:03:35.272Z,45.00
2018-08-30T05:04:35.254Z,45.00
2018-08-30T05:05:35.227Z,39.38
2018-08-30T05:06:35.277Z,50.62
2018-08-30T05:07:35.523Z,56.25
2018-08-30T05:08:35.196Z,56.25
2018-08-30T05:09:35.196Z,56.25
2018-08-30T05:10:35.175Z,56.25
2018-08-30T05:11:35.187Z,56.25
2018-08-30T05:12:35.187Z,56.25
2018-08-30T05:17:26.935Z,50.62
2018-08-30T05:19:34.990Z,45.00
2018-08-30T05:20:34.580Z,56.25
2018-08-30T05:21:34.630Z,61.88
2018-08-30T05:22:35.313Z,61.88
2018-08-30T05:25:23.611Z,90.00
2018-08-30T05:27:41.350Z,123.75
2018-08-30T05:28:41.192Z,112.50
2018-08-30T05:29:41.236Z,129.38
2018-08-30T05:30:41.133Z,151.88
2018-08-30T05:35:33.399Z,123.75
2018-08-30T05:36:33.251Z,118.12
2018-08-30T05:37:46.981Z,95.62
2018-08-30T05:38:33.168Z,73.12
2018-08-30T05:39:38.075Z,67.50
2018-08-30T05:40:33.258Z,78.75
2018-08-30T05:55:28.755Z,90.00
2018-08-30T05:56:24.951Z,106.88
2018-08-30T05:57:25.037Z,129.38
2018-08-30T05:59:43.178Z,112.50
2018-08-30T06:00:42.569Z,101.25
2018-08-30T06:01:50.893Z,106.88
2018-08-30T06:02:42.610Z,95.62
2018-08-30T06:32:39.159Z,236.25
2018-08-30T06:33:38.654Z,253.12
2018-08-30T06:34:38.783Z,275.62
2018-08-30T06:35:41.302Z,303.75
2018-08-30T06:36:38.555Z,326.25
2018-08-30T06:37:38.537Z,331.88
2018-08-30T06:38:38.520Z,315.00
2018-08-30T06:39:38.489Z,298.12
2018-08-30T06:40:55.939Z,270.00
2018-08-30T06:41:38.501Z,309.38
2018-08-30T06:42:38.717Z,360.00
2018-08-30T06:43:38.727Z,393.75
2018-08-30T06:44:38.461Z,393.75
2018-08-30T06:45:38.416Z,393.75
2018-08-30T06:46:38.460Z,354.38
2018-08-30T06:47:38.504Z,298.12
2018-08-30T06:48:38.472Z,309.38
2018-08-30T06:51:03.714Z,354.38
2018-08-30T06:52:02.448Z,354.38
2018-08-30T06:53:02.392Z,337.50
2018-08-30T06:54:02.428Z,360.00
2018-08-30T06:55:02.317Z,376.88
2018-08-30T06:56:02.264Z,376.88
2018-08-30T06:57:02.479Z,371.25
2018-08-30T06:58:02.218Z,416.25
2018-08-30T06:59:02.318Z,410.62
2018-08-30T07:00:02.200Z,421.88
2018-08-30T07:01:02.917Z,461.25
2018-08-30T07:02:02.198Z,472.50
2018-08-30T07:03:02.191Z,556.88
2018-08-30T07:04:02.169Z,579.38
2018-08-30T07:12:03.427Z,601.88
2018-08-30T07:13:02.925Z,579.38
2018-08-30T07:14:02.865Z,568.12
2018-08-30T07:15:02.984Z,551.25
2018-08-30T07:16:02.770Z,506.25
2018-08-30T07:18:41.829Z,556.88
2018-08-30T07:19:41.534Z,511.88
2018-08-30T07:20:41.514Z,466.88
2018-08-30T07:21:41.682Z,433.12
2018-08-30T07:22:41.428Z,433.12
2018-08-30T07:23:41.407Z,421.88
2018-08-30T07:24:41.406Z,438.75
2018-08-30T07:28:30.705Z,658.12
2018-08-30T07:29:30.106Z,630.00
2018-08-30T07:30:30.096Z,601.88
2018-08-30T07:31:30.012Z,759.38
2018-08-30T07:32:29.924Z,753.75
2018-08-30T07:33:30.061Z,708.75
2018-08-30T08:18:06.769Z,1051.88
2018-08-30T08:19:06.310Z,1102.50
2018-08-30T08:20:06.165Z,939.38
2018-08-30T08:21:06.098Z,883.12
2018-08-30T08:22:07.059Z,1091.25
2018-08-30T09:18:46.608Z,4162.50
2018-08-30T09:19:47.155Z,2801.25
2018-08-30T09:24:20.318Z,1575.00
2018-08-30T09:26:53.103Z,2205.00
2018-08-30T09:27:52.627Z,1501.88
2018-08-30T09:28:52.522Z,1642.50
2018-08-30T09:29:52.635Z,4027.50
2018-08-30T09:31:04.197Z,1816.88
2018-08-30T09:31:52.554Z,3076.88
2018-08-30T09:32:52.968Z,4539.38
2018-08-30T09:33:52.764Z,4308.75
2018-08-30T09:34:57.165Z,1462.50
2018-08-30T09:35:52.403Z,1726.88
2018-08-30T09:36:52.388Z,2581.88
2018-08-30T09:37:53.267Z,3549.38
2018-08-30T09:38:52.328Z,1051.88
2018-08-30T09:40:07.420Z,956.25
2018-08-30T09:40:57.914Z,1057.50
2018-08-30T09:41:52.289Z,1226.25
2018-08-30T09:46:19.928Z,4365.00
2018-08-30T09:49:38.412Z,1558.12
2018-08-30T09:50:37.605Z,1192.50
2018-08-30T09:51:37.645Z,1231.88
2018-08-30T09:52:38.146Z,1361.25
2018-08-30T09:53:37.678Z,1321.88
2018-08-30T09:54:37.443Z,1198.12
2018-08-30T09:55:37.460Z,1215.00
2018-08-30T09:56:37.511Z,1681.88
2018-08-30T09:59:19.400Z,4798.12
2018-08-30T10:04:01.218Z,2216.25
2018-08-30T10:05:01.179Z,3290.62
2018-08-30T10:06:01.321Z,4263.75
2018-08-30T10:07:01.139Z,2075.62
2018-08-30T10:08:01.094Z,3600.00
2018-08-30T10:09:01.049Z,4471.88
2018-08-30T10:10:01.128Z,4595.62
2018-08-30T10:15:21.188Z,1513.12
2018-08-30T10:16:29.000Z,1620.00
2018-08-30T10:17:19.626Z,4899.38
2018-08-30T10:21:54.198Z,1231.88
2018-08-30T10:22:54.101Z,1816.88
2018-08-30T10:23:53.978Z,4342.50
2018-08-30T10:24:53.932Z,4426.88
2018-08-30T10:25:54.043Z,4567.50
2018-08-30T10:26:54.025Z,4831.88
2018-08-30T10:27:53.898Z,5141.25
2018-08-30T10:28:53.920Z,4809.38
2018-08-30T10:29:53.928Z,2255.62
2018-08-30T10:30:53.869Z,4837.50
2018-08-30T10:31:53.853Z,3375.00
2018-08-30T10:32:53.842Z,2559.38
2018-08-30T10:33:53.878Z,1755.00
2018-08-30T10:34:53.841Z,4696.88
2018-08-30T10:35:53.866Z,1732.50
2018-08-30T10:36:53.829Z,1659.38
2018-08-30T10:37:53.823Z,1445.62
2018-08-30T10:38:54.750Z,978.75
2018-08-30T10:39:56.528Z,866.25
2018-08-30T10:40:53.963Z,956.25
2018-08-30T10:52:10.886Z,2446.88
2018-08-30T10:53:10.593Z,5135.62
2018-08-30T10:54:10.460Z,5281.88
2018-08-30T10:55:10.391Z,5152.50
2018-08-30T10:56:10.333Z,1783.12
2018-08-30T10:57:10.398Z,1575.00
2018-08-30T10:58:10.324Z,4989.38
2018-08-30T10:59:10.300Z,3673.12
2018-08-30T11:00:11.192Z,3003.75
2018-08-30T11:01:10.452Z,1659.38
2018-08-30T11:02:10.325Z,1530.00
2018-08-30T11:03:10.290Z,1625.62
2018-08-30T11:04:10.303Z,1929.38
2018-08-30T11:05:10.262Z,4803.75
2018-08-30T11:06:10.304Z,4966.88
2018-08-30T11:07:10.253Z,4955.62
2018-08-30T11:08:10.328Z,4376.25
2018-08-30T11:09:10.221Z,3037.50
2018-08-30T11:10:12.135Z,1029.38
2018-08-30T11:11:10.927Z,945.00
2018-08-30T11:12:10.233Z,1023.75
2018-08-30T11:13:10.469Z,1288.12
2018-08-30T11:14:10.221Z,1327.50
2018-08-30T11:15:12.214Z,1856.25
2018-08-30T11:16:22.918Z,1355.62
2018-08-30T11:19:51.223Z,1524.38
2018-08-30T11:24:16.187Z,703.12
2018-08-30T11:25:15.595Z,736.88
2018-08-30T11:26:15.483Z,871.88
2018-08-30T11:27:15.648Z,1153.12
2018-08-30T11:28:15.430Z,1496.25
2018-08-30T11:29:15.361Z,4061.25
2018-08-30T11:30:15.591Z,1136.25
2018-08-30T11:31:15.341Z,939.38
2018-08-30T11:32:15.315Z,832.50
2018-08-30T11:33:15.752Z,832.50
2018-08-30T11:34:16.388Z,866.25
2018-08-30T11:35:15.282Z,905.62
2018-08-30T11:36:15.292Z,978.75
2018-08-30T11:37:15.263Z,1080.00
2018-08-30T11:38:15.253Z,1136.25
2018-08-30T11:39:15.244Z,1203.75
2018-08-30T11:40:15.242Z,1293.75
2018-08-30T11:41:15.273Z,1355.62
2018-08-30T11:42:15.226Z,2250.00
2018-08-30T11:43:15.337Z,1541.25
2018-08-30T11:44:15.307Z,1389.38
2018-08-30T11:45:15.173Z,1293.75
2018-08-30T11:46:15.170Z,1288.12
2018-08-30T11:47:15.156Z,1350.00
2018-08-30T11:48:15.232Z,1440.00
2018-08-30T11:49:15.136Z,1569.38
2018-08-30T11:50:15.130Z,4106.25
2018-08-30T11:51:15.107Z,1912.50
2018-08-30T11:52:15.324Z,4151.25
2018-08-30T11:53:15.081Z,4055.62
2018-08-30T11:54:15.173Z,4044.38
2018-08-30T11:55:15.053Z,4044.38
2018-08-30T11:56:15.183Z,3971.25
2018-08-30T11:57:15.159Z,3943.12
2018-08-30T11:59:34.144Z,3273.75
2018-08-30T12:00:33.659Z,3892.50
2018-08-30T12:01:33.639Z,2193.75
2018-08-30T12:02:33.730Z,2452.50
2018-08-30T12:03:33.698Z,1738.12
2018-08-30T12:04:33.700Z,2368.12
2018-08-30T12:05:33.696Z,2925.00
2018-08-30T12:06:33.623Z,2233.12
2018-08-30T12:07:33.638Z,2649.38
2018-08-30T12:08:33.570Z,3307.50
2018-08-30T12:09:33.557Z,3633.75
2018-08-30T12:10:34.531Z,3279.38
2018-08-30T12:11:33.646Z,2981.25
2018-08-30T12:12:33.529Z,2334.38
2018-08-30T12:13:33.559Z,2536.88
2018-08-30T12:14:33.516Z,2227.50
2018-08-30T12:15:33.500Z,2171.25
2018-08-30T12:16:33.489Z,2086.88
2018-08-30T12:17:33.480Z,2070.00
2018-08-30T12:18:33.524Z,1749.38
2018-08-30T12:19:33.457Z,1783.12
2018-08-30T12:20:33.503Z,1738.12
2018-08-30T12:21:33.434Z,1946.25
2018-08-30T12:22:33.425Z,2216.25
2018-08-30T12:23:33.414Z,2323.12
2018-08-30T12:24:33.455Z,2767.50
2018-08-30T12:25:33.390Z,3341.25
2018-08-30T12:26:33.384Z,3358.12
2018-08-30T12:27:33.378Z,3560.62
2018-08-30T12:28:33.526Z,3802.50
2018-08-30T12:29:33.383Z,3858.75
2018-08-30T12:30:33.479Z,4275.00
2018-08-30T12:31:33.426Z,4365.00
2018-08-30T12:32:33.338Z,4083.75
2018-08-30T12:33:33.352Z,3313.12
2018-08-30T12:34:33.397Z,3431.25
2018-08-30T12:35:33.406Z,3785.62
2018-08-30T12:36:34.114Z,3031.88
2018-08-30T12:37:33.304Z,1648.12
2018-08-30T12:38:33.281Z,1541.25
2018-08-30T12:39:33.300Z,2289.38
2018-08-30T12:40:33.255Z,1918.12
2018-08-30T12:41:33.283Z,1816.88
2018-08-30T12:42:33.567Z,1800.00
2018-08-30T12:43:33.365Z,1614.38
2018-08-30T12:44:33.314Z,1546.88
2018-08-30T12:45:33.217Z,1479.38
2018-08-30T12:46:33.255Z,1485.00
2018-08-30T12:47:33.267Z,1428.75
2018-08-30T12:48:33.204Z,2666.25
2018-08-30T12:49:33.147Z,3712.50
2018-08-30T12:50:33.308Z,3414.38
2018-08-30T12:51:33.312Z,3133.12
2018-08-30T12:52:33.305Z,3470.62
2018-08-30T12:53:33.313Z,3802.50
2018-08-30T12:54:33.245Z,3307.50
2018-08-30T12:55:33.231Z,3813.75
2018-08-30T12:56:33.074Z,4365.00
2018-08-30T12:57:33.175Z,4432.50
2018-08-30T12:58:33.256Z,4404.38
2018-08-30T12:59:33.249Z,4550.62
2018-08-30T13:00:34.134Z,1991.25
2018-08-30T13:01:33.223Z,2025.00
2018-08-30T13:02:33.352Z,4190.62
2018-08-30T13:10:31.611Z,4516.88
2018-08-30T13:11:31.826Z,2098.12
2018-08-30T13:12:31.371Z,4033.12
2018-08-30T13:13:31.366Z,4303.12
2018-08-30T13:14:31.451Z,4291.88
2018-08-30T13:15:31.533Z,1355.62
2018-08-30T13:16:31.487Z,2643.75
2018-08-30T13:17:31.118Z,1906.88
2018-08-30T13:18:31.407Z,3943.12
2018-08-30T13:19:31.569Z,1513.12
2018-08-30T13:20:31.315Z,1546.88
2018-08-30T13:21:31.264Z,4207.50
2018-08-30T13:22:31.406Z,4168.12
2018-08-30T13:23:31.148Z,3442.50
2018-08-30T13:24:31.236Z,4083.75
2018-08-30T13:25:33.535Z,1580.62
2018-08-30T13:26:31.219Z,1406.25
2018-08-30T13:27:31.390Z,1265.62
2018-08-30T13:28:31.205Z,1119.38
2018-08-30T13:29:31.219Z,1237.50
2018-08-30T13:30:31.371Z,1096.88
2018-08-30T13:31:31.251Z,3577.50
2018-08-30T13:32:43.501Z,3937.50
2018-08-30T13:33:31.310Z,3988.12
2018-08-30T13:34:31.467Z,1749.38
2018-08-30T13:35:31.199Z,1608.75
2018-08-30T13:36:31.192Z,1366.88
2018-08-30T13:37:31.505Z,1321.88
2018-08-30T13:38:32.162Z,4050.00
2018-08-30T13:39:31.628Z,3920.62
2018-08-30T13:40:33.373Z,1597.50
2018-08-30T13:41:31.328Z,4021.88
2018-08-30T13:42:31.474Z,3943.12
2018-08-30T13:43:31.227Z,3864.38
2018-08-30T13:44:31.291Z,1501.88
2018-08-30T13:45:31.391Z,1310.62
2018-08-30T13:46:31.058Z,1203.75
2018-08-30T13:47:31.289Z,1074.38
2018-08-30T13:48:31.633Z,961.88
2018-08-30T13:49:30.978Z,866.25
2018-08-30T13:50:31.058Z,804.38
2018-08-30T13:51:31.109Z,753.75
2018-08-30T13:52:31.278Z,736.88
2018-08-30T13:53:31.078Z,770.62
2018-08-30T13:54:31.092Z,781.88
2018-08-30T13:55:31.150Z,753.75
2018-08-30T13:56:31.204Z,725.62
2018-08-30T13:57:31.293Z,691.88
2018-08-30T15:02:12.454Z,461.25
2018-08-30T15:03:10.058Z,427.50
2018-08-30T15:04:09.929Z,444.38
2018-08-30T15:05:09.996Z,500.62
2018-08-30T15:06:09.930Z,511.88
2018-08-30T15:07:09.932Z,506.25
2018-08-30T15:08:11.088Z,517.50
2018-08-30T15:09:13.889Z,562.50
2018-08-30T15:11:20.993Z,613.12
2018-08-30T15:12:20.847Z,624.38
2018-08-30T15:13:20.757Z,641.25
2018-08-30T15:14:20.688Z,652.50
2018-08-30T15:15:20.589Z,658.12
2018-08-30T15:16:21.679Z,652.50
2018-08-30T15:17:20.601Z,646.88
2018-08-30T15:18:20.536Z,652.50
2018-08-30T15:19:20.579Z,652.50
2018-08-30T15:20:20.861Z,680.62
2018-08-30T15:21:20.534Z,725.62
2018-08-30T15:22:21.405Z,753.75
2018-08-30T15:23:20.717Z,753.75
2018-08-30T15:24:20.551Z,748.12
2018-08-30T15:25:20.466Z,714.38
2018-08-30T15:26:20.462Z,714.38
2018-08-30T15:27:20.696Z,731.25
2018-08-30T15:28:20.439Z,725.62
2018-08-30T15:29:20.680Z,697.50
2018-08-30T15:30:20.397Z,652.50
2018-08-30T15:31:20.408Z,613.12
2018-08-30T15:32:20.569Z,568.12
2018-08-30T15:33:20.393Z,540.00
2018-08-30T15:34:20.657Z,540.00
2018-08-30T15:35:20.372Z,534.38
2018-08-30T15:36:20.497Z,585.00
2018-08-30T15:37:20.327Z,590.62
2018-08-30T15:38:20.323Z,680.62
2018-08-30T15:39:20.305Z,697.50
2018-08-30T15:40:20.834Z,691.88
2018-08-30T15:41:20.391Z,697.50
2018-08-30T15:42:20.383Z,748.12
2018-08-30T15:43:20.276Z,776.25
2018-08-30T15:44:20.253Z,793.12
2018-08-30T15:45:20.519Z,832.50
2018-08-30T15:46:20.468Z,821.25
2018-08-30T15:47:20.414Z,753.75
2018-08-30T15:48:20.454Z,680.62
2018-08-30T15:49:20.470Z,635.62
2018-08-30T15:50:20.221Z,613.12
2018-08-30T15:51:20.203Z,585.00
2018-08-30T15:52:20.936Z,551.25
2018-08-30T15:53:20.929Z,556.88
2018-08-30T15:54:20.206Z,573.75
2018-08-30T15:55:20.871Z,551.25
2018-08-30T15:56:20.205Z,511.88
2018-08-30T15:57:21.265Z,489.38
2018-08-30T15:58:20.897Z,472.50
2018-08-30T15:59:20.151Z,433.12
2018-08-30T16:00:30.294Z,393.75
2018-08-30T16:05:45.641Z,388.12
2018-08-30T16:06:46.741Z,393.75
2018-08-30T16:07:45.660Z,388.12
2018-08-30T16:08:45.438Z,388.12
2018-08-30T16:09:45.452Z,376.88
2018-08-30T16:10:45.491Z,360.00
2018-08-30T16:11:45.416Z,354.38
2018-08-30T16:12:45.401Z,348.75
2018-08-30T16:13:45.382Z,331.88
2018-08-30T16:14:45.445Z,320.62
2018-08-30T16:15:45.386Z,315.00
2018-08-30T16:16:45.354Z,315.00
2018-08-30T16:17:45.355Z,309.38
2018-08-30T16:18:45.454Z,303.75
2018-08-30T16:19:45.320Z,298.12
2018-08-30T16:20:45.406Z,286.88
2018-08-30T16:21:45.340Z,275.62
2018-08-30T16:22:45.296Z,258.75
2018-08-30T16:23:45.309Z,241.88
2018-08-30T16:24:45.432Z,213.75
2018-08-30T16:25:45.288Z,180.00
2018-08-30T16:26:45.235Z,146.25
2018-08-30T16:27:45.284Z,118.12
2018-08-30T16:28:45.234Z,95.62
2018-08-30T16:29:45.261Z,78.75
2018-08-30T16:30:45.254Z,73.12
2018-08-30T16:31:45.220Z,73.12
2018-08-30T16:32:45.228Z,73.12
2018-08-30T16:33:45.928Z,73.12
2018-08-30T16:50:23.511Z,174.38
2018-08-30T16:51:31.519Z,185.62
2018-08-30T16:52:23.750Z,202.50
2018-08-30T16:53:23.779Z,225.00
2018-08-30T16:54:23.407Z,241.88
2018-08-30T16:55:23.517Z,258.75
2018-08-30T16:56:23.593Z,270.00
2018-08-30T16:57:23.247Z,281.25
2018-08-30T16:58:23.381Z,286.88
2018-08-30T16:59:26.296Z,292.50
2018-08-30T17:00:23.394Z,298.12
2018-08-30T17:01:23.207Z,298.12
2018-08-30T17:02:23.598Z,292.50
2018-08-30T17:03:23.379Z,292.50
2018-08-30T17:04:23.174Z,286.88
2018-08-30T17:05:23.156Z,292.50
2018-08-30T17:06:23.223Z,292.50
2018-08-30T17:07:23.234Z,292.50
2018-08-30T17:08:23.632Z,281.25
2018-08-30T17:09:23.175Z,275.62
2018-08-30T17:10:23.166Z,264.38
2018-08-30T17:11:23.242Z,253.12
2018-08-30T17:12:23.155Z,241.88
2018-08-30T17:13:23.190Z,230.62
2018-08-30T17:14:23.048Z,225.00
2018-08-30T17:15:23.114Z,219.38
2018-08-30T17:16:23.038Z,208.12
2018-08-30T17:17:25.888Z,202.50
2018-08-30T17:25:23.696Z,180.00
2018-08-30T17:26:27.925Z,180.00
2018-08-30T17:27:17.519Z,168.75
2018-08-30T17:28:17.388Z,163.12
2018-08-30T17:29:17.486Z,163.12
2018-08-30T17:30:17.324Z,157.50
2018-08-30T17:31:17.524Z,151.88
2018-08-30T17:32:17.324Z,146.25
2018-08-30T17:33:17.280Z,146.25
2018-08-30T17:34:17.312Z,140.62
2018-08-30T17:35:17.288Z,135.00
2018-08-30T17:36:17.452Z,129.38
2018-08-30T17:37:17.400Z,123.75
2018-08-30T17:38:17.344Z,118.12
2018-08-30T17:39:17.307Z,118.12
2018-08-30T17:40:17.294Z,112.50
2018-08-30T17:41:17.200Z,106.88
2018-08-30T17:42:17.220Z,101.25
2018-08-30T17:43:17.221Z,95.62
2018-08-30T17:44:17.162Z,90.00
2018-08-30T17:45:17.233Z,90.00
2018-08-30T17:46:17.176Z,90.00
2018-08-30T17:47:17.161Z,84.38
2018-08-30T17:48:17.214Z,78.75
2018-08-30T17:49:17.114Z,73.12
2018-08-30T17:50:17.249Z,67.50
2018-08-30T17:51:17.130Z,61.88
2018-08-30T17:52:17.076Z,61.88
2018-08-30T17:53:17.077Z,56.25
2018-08-30T17:54:17.136Z,56.25
2018-08-30T17:55:17.045Z,56.25
2018-08-30T17:56:17.036Z,50.62
2018-08-30T17:57:17.022Z,50.62
2018-08-30T17:58:16.996Z,45.00
2018-08-30T17:59:16.994Z,45.00
2018-08-30T18:00:17.120Z,45.00
2018-08-30T18:01:17.145Z,39.38
2018-08-30T18:02:17.805Z,39.38
2018-08-30T18:03:16.990Z,39.38
2018-08-30T18:04:16.993Z,33.75
2018-08-30T18:05:17.069Z,33.75
2018-08-30T18:06:16.944Z,33.75
2018-08-30T18:09:35.494Z,28.12
2018-08-30T18:10:35.167Z,28.12
2018-08-30T18:11:35.235Z,22.50
2018-08-30T18:12:35.310Z,22.50
2018-08-30T18:15:16.817Z,16.88
2018-08-30T18:16:17.697Z,16.88
2018-08-30T18:17:18.064Z,11.25
2018-08-30T18:19:47.129Z,5.62
2018-08-30T18:20:45.708Z,5.62
2018-08-30T18:21:45.884Z,5.62
2018-08-30T18:22:45.521Z,5.62
2018-08-30T18:23:46.200Z,5.62
2018-08-30T18:24:45.428Z,5.62
2018-08-30T18:25:45.554Z,5.62
2018-08-30T18:26:45.376Z,0.00
2018-08-30T18:27:45.344Z,0.00
2018-08-30T18:28:45.357Z,0.00
2018-08-30T18:29:45.305Z,0.00
2018-08-30T18:30:45.324Z,0.00
2018-08-30T18:31:45.288Z,0.00
2018-08-30T18:32:45.290Z,0.00
2018-08-30T18:33:45.289Z,0.00
2018-08-30T18:34:45.315Z,0.00
2018-08-30T18:35:45.257Z,0.00
2018-08-30T18:36:45.227Z,0.00
2018-08-30T18:37:45.285Z,0.00
2018-08-30T18:38:45.238Z,0.00
2018-08-30T18:39:45.317Z,0.00
2018-08-30T18:40:45.212Z,0.00
2018-08-30T18:41:45.353Z,0.00
2018-08-30T18:42:45.237Z,0.00
2018-08-30T18:43:45.259Z,0.00
2018-08-30T18:44:45.360Z,0.00
2018-08-30T18:45:45.437Z,0.00
2018-08-30T18:46:45.171Z,0.00
2018-08-30T18:47:45.115Z,0.00
2018-08-30T19:12:00.404Z,0.00
2018-08-30T19:15:19.888Z,0.00
2018-08-30T19:24:51.432Z,0.00
2018-08-30T19:25:51.304Z,0.00
2018-08-30T19:30:52.308Z,0.00
2018-08-30T19:31:52.142Z,0.00
2018-08-30T19:32:52.066Z,0.00
2018-08-30T19:33:52.369Z,0.00
2018-08-30T19:34:51.978Z,0.00
2018-08-30T19:35:51.882Z,0.00
2018-08-30T19:36:51.916Z,0.00
2018-08-30T19:37:51.865Z,0.00
2018-08-30T19:38:51.943Z,0.00
2018-08-30T19:41:18.492Z,0.00
2018-08-30T19:42:18.635Z,0.00
2018-08-30T19:43:18.255Z,0.00
2018-08-30T19:44:18.216Z,0.00
2018-08-30T19:45:18.212Z,0.00
2018-08-30T19:46:18.223Z,0.00
2018-08-30T19:47:18.179Z,0.00
2018-08-30T19:48:18.179Z,0.00
2018-08-30T19:49:18.155Z,0.00
2018-08-30T19:50:18.150Z,0.00
2018-08-30T19:51:18.152Z,0.00
2018-08-30T19:52:18.198Z,0.00
2018-08-30T19:53:18.138Z,0.00
2018-08-30T19:54:18.176Z,0.00
2018-08-30T19:55:18.091Z,0.00
2018-08-30T19:56:18.085Z,0.00
2018-08-30T19:57:18.145Z,0.00
2018-08-30T19:58:18.134Z,0.00
2018-08-30T19:59:18.057Z,0.00
2018-08-30T20:00:18.221Z,0.00
2018-08-30T20:01:18.046Z,0.00
2018-08-30T20:02:18.105Z,0.00
2018-08-30T20:03:18.033Z,0.00
2018-08-30T20:04:18.039Z,0.00
2018-08-30T20:05:18.052Z,0.00
2018-08-30T20:06:17.974Z,0.00
2018-08-30T20:07:17.966Z,0.00
2018-08-30T20:08:18.012Z,0.00
2018-08-30T20:09:18.014Z,0.00
2018-08-30T20:10:17.955Z,0.00
2018-08-30T20:11:17.923Z,0.00
2018-08-30T20:12:17.916Z,0.00
2018-08-30T20:13:17.897Z,0.00
2018-08-30T20:14:17.939Z,0.00
2018-08-30T20:15:17.890Z,0.00
2018-08-30T20:16:17.863Z,0.00
2018-08-30T20:17:17.858Z,0.00
2018-08-30T20:18:17.840Z,0.00
2018-08-30T20:19:17.847Z,0.00
2018-08-30T20:20:17.821Z,0.00
2018-08-30T20:21:17.837Z,0.00
2018-08-30T20:22:17.797Z,0.00
2018-08-30T20:23:17.789Z,0.00
2018-08-30T20:24:17.801Z,0.00
2018-08-30T20:25:17.795Z,0.00
2018-08-30T20:26:17.752Z,0.00
2018-08-30T20:27:17.751Z,0.00
2018-08-30T20:28:17.769Z,0.00
2018-08-30T20:29:17.733Z,0.00
2018-08-30T20:30:17.727Z,0.00
2018-08-30T20:31:17.869Z,0.00
2018-08-30T20:32:20.340Z,0.00
2018-08-30T20:33:17.707Z,0.00
2018-08-30T20:34:17.675Z,0.00
2018-08-30T20:35:17.672Z,0.00
2018-08-30T20:36:17.664Z,0.00
2018-08-30T20:37:17.637Z,0.00
2018-08-30T20:38:17.659Z,0.00
2018-08-30T20:39:17.629Z,0.00
2018-08-30T20:40:17.613Z,0.00
2018-08-30T20:41:17.650Z,0.00
2018-08-30T20:42:17.595Z,0.00
2018-08-30T20:43:17.581Z,0.00
2018-08-30T20:44:17.573Z,0.00
2018-08-30T20:45:17.548Z,0.00
2018-08-30T20:46:17.553Z,0.00
2018-08-30T20:47:17.523Z,0.00
2018-08-30T20:48:17.537Z,0.00
2018-08-30T20:49:17.575Z,0.00
2018-08-30T20:50:17.519Z,0.00
2018-08-30T20:51:17.488Z,0.00
2018-08-30T20:52:17.517Z,0.00
2018-08-30T20:53:17.478Z,0.00
2018-08-30T20:54:17.449Z,0.00
2018-08-30T20:55:17.496Z,0.00
2018-08-30T20:56:17.433Z,0.00
2018-08-30T20:57:17.415Z,0.00
2018-08-30T20:58:17.432Z,0.00
2018-08-30T20:59:17.395Z,0.00
2018-08-30T21:00:17.473Z,0.00
2018-08-30T21:01:17.382Z,0.00
2018-08-30T21:02:17.371Z,0.00
2018-08-30T21:03:17.388Z,0.00
2018-08-30T21:04:17.349Z,0.00
2018-08-30T21:05:17.330Z,0.00
2018-08-30T21:06:17.379Z,0.00
2018-08-30T21:07:17.309Z,0.00
2018-08-30T21:08:17.342Z,0.00
2018-08-30T21:09:17.287Z,0.00
2018-08-30T21:10:17.284Z,0.00
2018-08-30T21:11:17.270Z,0.00
2018-08-30T21:12:17.252Z,0.00
2018-08-30T21:13:17.304Z,0.00
2018-08-30T21:14:17.257Z,0.00
2018-08-30T21:15:17.226Z,0.00
2018-08-30T21:16:17.245Z,0.00
2018-08-30T21:17:17.203Z,0.00
2018-08-30T21:18:17.187Z,0.00
2018-08-30T21:19:17.196Z,0.00
2018-08-30T21:20:17.166Z,0.00
2018-08-30T21:21:17.193Z,0.00
2018-08-30T21:22:17.144Z,0.00
2018-08-30T21:23:17.151Z,0.00
2018-08-30T21:24:17.118Z,0.00
2018-08-30T21:25:17.115Z,0.00
2018-08-30T21:26:17.135Z,0.00
2018-08-30T21:27:17.110Z,0.00
2018-08-30T21:28:17.083Z,0.00
2018-08-30T21:29:17.089Z,0.00
2018-08-30T21:30:17.067Z,0.00
2018-08-30T21:31:17.041Z,0.00
2018-08-30T21:32:17.042Z,0.00
2018-08-30T21:33:17.040Z,0.00
2018-08-30T21:34:17.109Z,0.00
2018-08-30T21:35:16.999Z,0.00
2018-08-30T21:36:16.991Z,0.00
2018-08-30T21:37:16.974Z,0.00
2018-08-30T21:38:16.974Z,0.00
2018-08-30T21:39:16.980Z,0.00
2018-08-30T21:40:16.995Z,0.00
2018-08-30T21:41:16.940Z,0.00
2018-08-30T21:42:16.926Z,0.00
2018-08-30T21:43:16.916Z,0.00
2018-08-30T21:44:16.907Z,0.00
2018-08-30T21:45:16.884Z,0.00
2018-08-30T21:46:16.931Z,0.00
2018-08-30T21:47:16.865Z,0.00
2018-08-30T21:48:16.860Z,0.00
2018-08-30T21:49:16.872Z,0.00